Time,TemperatureF,DewpointF,PressureIn,WindDirection,WindDirectionDegrees,WindSpeedMPH,WindSpeedGustMPH,Humidity,HourlyPrecipIn,Conditions,Clouds,dailyrainin,SolarRadiationWatts/m^2,SoftwareType,DateUTC
2013-07-20 00:01:00,67.0,67.0,-100.00,SSW,199,3.0,9.0,100,0.00,,,0.00,0.000000,,2013-07-20 04:01:00,
2013-07-20 00:33:00,67.0,67.0,-100.00,SSW,199,3.0,9.0,100,0.00,,,0.00,0.000000,,2013-07-20 04:33:00,
2013-07-20 00:44:00,67.0,67.0,-100.00,SSW,199,3.0,9.0,100,0.00,,,0.00,0.000000,,2013-07-20 04:44:00,
2013-07-20 00:52:00,67.0,67.0,-100.00,SSW,199,3.0,9.0,100,0.00,,,0.00,0.000000,,2013-07-20 04:52:00,
2013-07-20 01:01:00,67.0,67.0,-100.00,SSW,209,4.0,8.0,100,0.00,,,0.00,0.000000,,2013-07-20 05:01:00,
2013-07-20 01:32:00,67.0,67.0,-100.00,SSW,209,4.0,8.0,100,0.00,,,0.00,0.000000,,2013-07-20 05:32:00,
2013-07-20 01:52:00,67.0,67.0,-100.00,SSW,209,4.0,8.0,100,0.00,,,0.00,0.000000,,2013-07-20 05:52:00,
2013-07-20 02:01:00,66.0,66.0,-100.00,SW,226,3.0,7.0,100,0.00,,,0.00,0.000000,,2013-07-20 06:01:00,
2013-07-20 02:32:00,66.0,66.0,-100.00,SW,226,3.0,7.0,100,0.00,,,0.00,0.000000,,2013-07-20 06:32:00,
2013-07-20 02:43:00,66.0,66.0,-100.00,SW,226,3.0,7.0,100,0.00,,,0.00,0.000000,,2013-07-20 06:43:00,
2013-07-20 02:52:00,66.0,66.0,-100.00,SW,226,3.0,7.0,100,0.00,,,0.00,0.000000,,2013-07-20 06:52:00,
2013-07-20 03:01:00,67.0,67.0,-100.00,SSW,195,3.0,5.0,100,0.00,,,0.00,0.000000,,2013-07-20 07:01:00,
2013-07-20 03:22:00,67.0,67.0,-100.00,SSW,195,3.0,5.0,100,0.00,,,0.00,0.000000,,2013-07-20 07:22:00,
2013-07-20 03:33:00,67.0,67.0,-100.00,SSW,195,3.0,5.0,100,0.00,,,0.00,0.000000,,2013-07-20 07:33:00,
2013-07-20 03:44:00,67.0,67.0,-100.00,SSW,195,3.0,5.0,100,0.00,,,0.00,0.000000,,2013-07-20 07:44:00,
2013-07-20 03:54:00,67.0,67.0,-100.00,SSW,195,3.0,5.0,100,0.00,,,0.00,0.000000,,2013-07-20 07:54:00,
2013-07-20 04:01:00,65.0,65.0,-100.00,SW,214,4.0,6.0,100,0.00,,,0.00,0.000000,,2013-07-20 08:01:00,
2013-07-20 04:22:00,65.0,65.0,-100.00,SW,214,4.0,6.0,100,0.00,,,0.00,0.000000,,2013-07-20 08:22:00,
2013-07-20 04:32:00,65.0,65.0,-100.00,SW,214,4.0,6.0,100,0.00,,,0.00,0.000000,,2013-07-20 08:32:00,
2013-07-20 04:44:00,65.0,65.0,-100.00,SW,214,4.0,6.0,100,0.00,,,0.00,0.000000,,2013-07-20 08:44:00,
2013-07-20 04:52:00,65.0,65.0,-100.00,SW,214,4.0,6.0,100,0.00,,,0.00,0.000000,,2013-07-20 08:52:00,
2013-07-20 05:01:00,66.0,66.0,-100.00,WSW,245,5.0,8.0,100,0.00,,,0.00,0.000000,,2013-07-20 09:01:00,
2013-07-20 05:33:00,66.0,66.0,-100.00,WSW,245,5.0,8.0,100,0.00,,,0.00,0.000000,,2013-07-20 09:33:00,
2013-07-20 05:43:00,66.0,66.0,-100.00,WSW,245,5.0,8.0,100,0.00,,,0.00,0.000000,,2013-07-20 09:43:00,
2013-07-20 05:53:00,66.0,66.0,-100.00,WSW,245,5.0,8.0,100,0.00,,,0.00,0.000000,,2013-07-20 09:53:00,
2013-07-20 06:01:00,66.0,66.0,-100.00,SW,225,5.0,7.0,100,0.00,,,0.00,0.000000,,2013-07-20 10:01:00,
2013-07-20 06:32:00,66.0,66.0,-100.00,SW,225,5.0,7.0,100,0.00,,,0.00,0.000000,,2013-07-20 10:32:00,
2013-07-20 06:42:00,66.0,66.0,-100.00,SW,225,5.0,7.0,100,0.00,,,0.00,0.000000,,2013-07-20 10:42:00,
2013-07-20 06:52:00,66.0,66.0,-100.00,SW,225,5.0,7.0,100,0.00,,,0.00,0.000000,,2013-07-20 10:52:00,
2013-07-20 07:01:00,65.0,65.0,-100.00,SSW,212,5.0,7.0,100,0.00,,,0.00,13.000000,,2013-07-20 11:01:00,
2013-07-20 07:32:00,65.0,65.0,-100.00,SSW,212,5.0,7.0,100,0.00,,,0.00,13.000000,,2013-07-20 11:32:00,
2013-07-20 07:43:00,65.0,65.0,-100.00,SSW,212,5.0,7.0,100,0.00,,,0.00,13.000000,,2013-07-20 11:43:00,
2013-07-20 07:52:00,65.0,65.0,-100.00,SSW,212,5.0,7.0,100,0.00,,,0.00,13.000000,,2013-07-20 11:52:00,
2013-07-20 08:01:00,68.0,68.0,-100.00,SW,222,4.0,7.0,100,0.00,,,0.00,134.000000,,2013-07-20 12:01:00,
2013-07-20 08:32:00,68.0,68.0,-100.00,SW,222,4.0,7.0,100,0.00,,,0.00,134.000000,,2013-07-20 12:32:00,
2013-07-20 08:52:00,68.0,68.0,-100.00,SW,222,4.0,7.0,100,0.00,,,0.00,134.000000,,2013-07-20 12:52:00,
2013-07-20 09:01:00,71.0,71.0,-100.00,SW,227,3.0,8.0,100,0.00,,,0.00,265.000000,,2013-07-20 13:01:00,
2013-07-20 09:32:00,71.0,71.0,-100.00,SW,227,3.0,8.0,100,0.00,,,0.00,265.000000,,2013-07-20 13:32:00,
2013-07-20 09:43:00,71.0,71.0,-100.00,SW,227,3.0,8.0,100,0.00,,,0.00,265.000000,,2013-07-20 13:43:00,
2013-07-20 09:53:00,71.0,71.0,-100.00,SW,227,3.0,8.0,100,0.00,,,0.00,265.000000,,2013-07-20 13:53:00,
2013-07-20 10:01:00,73.0,72.0,-100.00,NE,51,1.0,9.0,96,0.00,,,0.00,345.000000,,2013-07-20 14:01:00,
2013-07-20 10:32:00,73.0,72.0,-100.00,NE,51,1.0,9.0,96,0.00,,,0.00,345.000000,,2013-07-20 14:32:00,
2013-07-20 10:43:00,73.0,72.0,-100.00,NE,51,1.0,9.0,96,0.00,,,0.00,345.000000,,2013-07-20 14:43:00,
2013-07-20 10:53:00,73.0,72.0,-100.00,NE,51,1.0,9.0,96,0.00,,,0.00,345.000000,,2013-07-20 14:53:00,
2013-07-20 11:01:00,76.0,72.0,-100.00,North,6,2.0,6.0,87,0.00,,,0.00,491.000000,,2013-07-20 15:01:00,
2013-07-20 11:33:00,76.0,72.0,-100.00,North,6,2.0,6.0,87,0.00,,,0.00,491.000000,,2013-07-20 15:33:00,
2013-07-20 11:44:00,76.0,72.0,-100.00,North,6,2.0,6.0,87,0.00,,,0.00,491.000000,,2013-07-20 15:44:00,
2013-07-20 11:53:00,76.0,72.0,-100.00,North,6,2.0,6.0,87,0.00,,,0.00,491.000000,,2013-07-20 15:53:00,
2013-07-20 12:01:00,79.0,71.0,-100.00,NW,310,4.0,10.0,77,0.00,,,0.00,698.000000,,2013-07-20 16:01:00,
2013-07-20 12:22:00,79.0,71.0,-100.00,NW,310,4.0,10.0,77,0.00,,,0.00,698.000000,,2013-07-20 16:22:00,
2013-07-20 12:32:00,79.0,71.0,-100.00,NW,310,4.0,10.0,77,0.00,,,0.00,698.000000,,2013-07-20 16:32:00,
2013-07-20 12:44:00,79.0,71.0,-100.00,NW,310,4.0,10.0,77,0.00,,,0.00,698.000000,,2013-07-20 16:44:00,
2013-07-20 12:52:00,79.0,71.0,-100.00,NW,310,4.0,10.0,77,0.00,,,0.00,698.000000,,2013-07-20 16:52:00,
2013-07-20 13:01:00,80.0,65.0,-100.00,West,275,4.0,10.0,61,0.00,,,0.00,902.000000,,2013-07-20 17:01:00,
2013-07-20 13:22:00,80.0,65.0,-100.00,West,275,4.0,10.0,61,0.00,,,0.00,902.000000,,2013-07-20 17:22:00,
2013-07-20 13:32:00,80.0,65.0,-100.00,West,275,4.0,10.0,61,0.00,,,0.00,902.000000,,2013-07-20 17:32:00,
2013-07-20 13:43:00,80.0,65.0,-100.00,West,275,4.0,10.0,61,0.00,,,0.00,902.000000,,2013-07-20 17:43:00,
2013-07-20 13:53:00,80.0,65.0,-100.00,West,275,4.0,10.0,61,0.00,,,0.00,902.000000,,2013-07-20 17:53:00,
2013-07-20 14:01:00,84.0,64.0,-100.00,WSW,238,4.0,12.0,52,0.00,,,0.00,947.000000,,2013-07-20 18:01:00,
2013-07-20 14:25:00,84.0,64.0,-100.00,WSW,238,4.0,12.0,52,0.00,,,0.00,947.000000,,2013-07-20 18:25:00,
2013-07-20 14:38:00,84.0,64.0,-100.00,WSW,238,4.0,12.0,52,0.00,,,0.00,947.000000,,2013-07-20 18:38:00,
2013-07-20 14:47:00,84.0,64.0,-100.00,WSW,238,4.0,12.0,52,0.00,,,0.00,947.000000,,2013-07-20 18:47:00,
2013-07-20 14:59:00,84.0,64.0,-100.00,WSW,238,4.0,12.0,52,0.00,,,0.00,947.000000,,2013-07-20 18:59:00,
2013-07-20 15:01:00,83.0,67.0,-100.00,SW,235,3.0,12.0,59,0.00,,,0.00,738.000000,,2013-07-20 19:01:00,
2013-07-20 15:26:00,83.0,67.0,-100.00,SW,235,3.0,12.0,59,0.00,,,0.00,738.000000,,2013-07-20 19:26:00,
2013-07-20 15:35:00,83.0,67.0,-100.00,SW,235,3.0,12.0,59,0.00,,,0.00,738.000000,,2013-07-20 19:35:00,
2013-07-20 15:44:00,83.0,67.0,-100.00,SW,235,3.0,12.0,59,0.00,,,0.00,738.000000,,2013-07-20 19:44:00,
2013-07-20 15:57:00,83.0,67.0,-100.00,SW,235,3.0,12.0,59,0.00,,,0.00,738.000000,,2013-07-20 19:57:00,
2013-07-20 16:01:00,84.0,66.0,-100.00,West,263,5.0,9.0,54,0.00,,,0.00,986.000000,,2013-07-20 20:01:00,
2013-07-20 16:24:00,84.0,66.0,-100.00,West,263,5.0,9.0,54,0.00,,,0.00,986.000000,,2013-07-20 20:24:00,
2013-07-20 16:35:00,84.0,66.0,-100.00,West,263,5.0,9.0,54,0.00,,,0.00,986.000000,,2013-07-20 20:35:00,
2013-07-20 16:47:00,84.0,66.0,-100.00,West,263,5.0,9.0,54,0.00,,,0.00,986.000000,,2013-07-20 20:47:00,
2013-07-20 16:58:00,84.0,66.0,-100.00,West,263,5.0,9.0,54,0.00,,,0.00,986.000000,,2013-07-20 20:58:00,
2013-07-20 17:01:00,80.0,68.0,-100.00,WSW,252,3.0,7.0,68,0.00,,,0.00,538.000000,,2013-07-20 21:01:00,
2013-07-20 17:28:00,80.0,68.0,-100.00,WSW,252,3.0,7.0,68,0.00,,,0.00,538.000000,,2013-07-20 21:28:00,
2013-07-20 17:36:00,80.0,68.0,-100.00,WSW,252,3.0,7.0,68,0.00,,,0.00,538.000000,,2013-07-20 21:36:00,
2013-07-20 17:48:00,80.0,68.0,-100.00,WSW,252,3.0,7.0,68,0.00,,,0.00,538.000000,,2013-07-20 21:48:00,
2013-07-20 18:01:00,78.0,67.0,-100.00,West,260,4.0,10.0,69,0.00,,,0.00,509.000000,,2013-07-20 22:01:00,
2013-07-20 18:28:00,78.0,67.0,-100.00,West,260,4.0,10.0,69,0.00,,,0.00,509.000000,,2013-07-20 22:28:00,
2013-07-20 18:37:00,78.0,67.0,-100.00,West,260,4.0,10.0,69,0.00,,,0.00,509.000000,,2013-07-20 22:37:00,
2013-07-20 18:50:00,78.0,67.0,-100.00,West,260,4.0,10.0,69,0.00,,,0.00,509.000000,,2013-07-20 22:50:00,
2013-07-20 18:57:00,78.0,67.0,-100.00,West,260,4.0,10.0,69,0.00,,,0.00,509.000000,,2013-07-20 22:57:00,
2013-07-20 19:01:00,73.0,67.0,-100.00,NE,36,6.0,14.0,81,0.00,,,0.00,155.000000,,2013-07-20 23:01:00,
2013-07-20 19:29:00,73.0,67.0,-100.00,NE,36,6.0,14.0,81,0.00,,,0.00,155.000000,,2013-07-20 23:29:00,
2013-07-20 19:40:00,73.0,67.0,-100.00,NE,36,6.0,14.0,81,0.00,,,0.00,155.000000,,2013-07-20 23:40:00,
2013-07-20 19:46:00,73.0,67.0,-100.00,NE,36,6.0,14.0,81,0.00,,,0.00,155.000000,,2013-07-20 23:46:00,
2013-07-20 19:57:00,73.0,67.0,-100.00,NE,36,6.0,14.0,81,0.00,,,0.00,155.000000,,2013-07-20 23:57:00,
2013-07-20 20:01:00,70.0,68.0,-100.00,WSW,243,3.0,10.0,92,0.00,,,0.00,105.000000,,2013-07-21 00:01:00,
2013-07-20 20:24:00,70.0,68.0,-100.00,WSW,243,3.0,10.0,92,0.00,,,0.00,105.000000,,2013-07-21 00:24:00,
2013-07-20 20:45:00,70.0,68.0,-100.00,WSW,243,3.0,10.0,92,0.00,,,0.00,105.000000,,2013-07-21 00:45:00,
2013-07-20 20:56:00,70.0,68.0,-100.00,WSW,243,3.0,10.0,92,0.00,,,0.00,105.000000,,2013-07-21 00:56:00,
2013-07-20 21:01:00,69.0,67.0,-100.00,SSW,211,3.0,5.0,92,0.00,,,0.00,5.000000,,2013-07-21 01:01:00,
2013-07-20 21:29:00,69.0,67.0,-100.00,SSW,211,3.0,5.0,92,0.00,,,0.00,5.000000,,2013-07-21 01:29:00,
2013-07-20 21:37:00,69.0,67.0,-100.00,SSW,211,3.0,5.0,92,0.00,,,0.00,5.000000,,2013-07-21 01:37:00,
2013-07-20 21:49:00,-999.0,-99.9,-100.00,SSW,211,3.0,5.0,-999,-99.99,,,-99.99,5.000000,,2013-07-21 01:49:00,
2013-07-20 21:59:00,69.0,67.0,-100.00,SSW,211,3.0,5.0,92,0.00,,,0.00,5.000000,,2013-07-21 01:59:00,
2013-07-20 22:01:00,68.0,67.0,-100.00,SW,214,3.0,5.0,98,0.00,,,-99.99,0.000000,,2013-07-21 02:01:00,
2013-07-20 22:38:00,68.0,67.0,-100.00,SW,214,3.0,5.0,98,0.00,,,-99.99,0.000000,,2013-07-21 02:38:00,
2013-07-20 22:47:00,68.0,67.0,-100.00,SW,214,3.0,5.0,98,0.00,,,-99.99,0.000000,,2013-07-21 02:47:00,
2013-07-20 22:58:00,68.0,67.0,-100.00,SW,214,3.0,5.0,98,0.00,,,-99.99,0.000000,,2013-07-21 02:58:00,
2013-07-20 23:01:00,67.0,67.0,-100.00,WSW,237,4.0,9.0,100,0.00,,,0.00,0.000000,,2013-07-21 03:01:00,
2013-07-20 23:26:00,67.0,67.0,-100.00,WSW,237,4.0,9.0,100,0.00,,,0.00,0.000000,,2013-07-21 03:26:00,
2013-07-20 23:37:00,67.0,67.0,-100.00,WSW,237,4.0,9.0,100,0.00,,,0.00,0.000000,,2013-07-21 03:37:00,
2013-07-20 23:47:00,67.0,67.0,-100.00,WSW,237,4.0,9.0,100,0.00,,,0.00,0.000000,,2013-07-21 03:47:00,